Sierra-at-tahoe, California
Current Conditions -  °F | °C
As of 3:53 PM on Monday 22 Dec 2014 (Local Time) from KTVL Reporting Station
Clear Clear  
Wind Chill:   Ceiling: Unl
Heat Index:   Visibility: 10mi
Dew Point:   Wind: 0mph
Humidity: 56%   Direction: NA
Pressure: 30.32"   Gusts: NA
Location:  38.77°N, 120.16°W
Report Text: KTVL 222353Z AUTO 00000KT 10SM CLR 09/01 A3032 RMK AO2 SLP251 T00940011 10144 20072 53002
Loading
Personal Weather Stations






























Interactive Weather Map New forecast layout! Learn more

10-Day Weather Forecast

Advertisements
Track Severe Weather on mobile